createdAt,value
2022-09-12T00:02:21.212Z,14.87
2022-09-12T00:04:50.561Z,14.81
2022-09-12T00:07:19.998Z,14.75
2022-09-12T00:09:49.543Z,14.75
2022-09-12T00:12:18.801Z,14.76
2022-09-12T00:14:48.079Z,14.69
2022-09-12T00:17:18.909Z,14.66
2022-09-12T00:19:48.332Z,14.64
2022-09-12T00:22:17.627Z,14.59
2022-09-12T00:24:47.024Z,14.59
2022-09-12T00:27:16.349Z,14.56
2022-09-12T00:29:45.983Z,14.52
2022-09-12T00:32:15.259Z,14.49
2022-09-12T00:34:44.581Z,14.43
2022-09-12T00:37:13.863Z,14.39
2022-09-12T00:39:43.422Z,14.36
2022-09-12T00:42:15.008Z,14.30
2022-09-12T00:44:47.214Z,14.19
2022-09-12T00:47:23.706Z,14.16
2022-09-12T00:50:02.209Z,14.02
2022-09-12T00:52:40.279Z,13.92
2022-09-12T00:55:49.483Z,13.88
2022-09-12T00:58:28.490Z,13.85
2022-09-12T01:00:59.251Z,13.88
2022-09-12T01:03:29.110Z,13.87
2022-09-12T01:06:13.807Z,13.85
2022-09-12T01:08:46.026Z,13.78
2022-09-12T01:11:16.850Z,13.74
2022-09-12T01:13:47.759Z,13.69
2022-09-12T01:16:17.271Z,13.67
2022-09-12T01:19:26.030Z,13.63
2022-09-12T01:22:22.461Z,13.62
2022-09-12T01:25:14.598Z,13.65
2022-09-12T01:28:10.058Z,13.67
2022-09-12T01:30:52.252Z,13.71
2022-09-12T01:33:59.935Z,13.69
2022-09-12T01:36:50.935Z,13.70
2022-09-12T01:39:53.989Z,13.73
2022-09-12T01:42:50.085Z,13.79
2022-09-12T01:45:25.425Z,13.80
2022-09-12T01:48:03.459Z,13.81
2022-09-12T01:50:40.795Z,13.77
2022-09-12T01:53:17.239Z,13.77
2022-09-12T01:56:06.533Z,13.72
2022-09-12T01:59:00.885Z,13.70
2022-09-12T02:01:33.983Z,13.74
2022-09-12T02:04:16.726Z,13.74
2022-09-12T02:06:57.790Z,13.71
2022-09-12T02:09:39.474Z,13.71
2022-09-12T02:12:13.096Z,13.71
2022-09-12T02:14:51.265Z,13.67
2022-09-12T02:17:28.092Z,13.68
2022-09-12T02:20:03.972Z,13.62
2022-09-12T02:22:34.557Z,13.63
2022-09-12T02:25:07.225Z,13.60
2022-09-12T02:27:42.903Z,13.57
2022-09-12T02:30:14.578Z,13.54
2022-09-12T02:32:52.615Z,13.55
2022-09-12T02:35:31.230Z,13.55
2022-09-12T02:38:28.086Z,13.55
2022-09-12T02:40:57.760Z,13.62
2022-09-12T02:43:27.513Z,13.67
2022-09-12T02:45:56.934Z,13.67
2022-09-12T02:48:34.425Z,13.69
2022-09-12T02:51:05.746Z,13.67
2022-09-12T02:53:35.174Z,13.63
2022-09-12T02:56:05.544Z,13.63
2022-09-12T02:58:35.480Z,13.61
2022-09-12T03:01:29.648Z,13.64
2022-09-12T03:04:27.855Z,13.67
2022-09-12T03:07:18.892Z,13.68
2022-09-12T03:10:13.181Z,13.68
2022-09-12T03:13:20.551Z,13.69
2022-09-12T03:16:27.048Z,13.73
2022-09-12T03:19:22.814Z,13.77
2022-09-12T03:22:10.996Z,13.74
2022-09-12T03:25:03.443Z,13.77
2022-09-12T03:28:06.256Z,13.80
2022-09-12T03:30:51.410Z,13.82
2022-09-12T03:33:22.815Z,13.83
2022-09-12T03:35:53.273Z,13.81
2022-09-12T03:38:22.643Z,13.79
2022-09-12T03:40:54.868Z,13.78
2022-09-12T03:43:24.324Z,13.77
2022-09-12T03:45:54.703Z,13.74
2022-09-12T03:48:24.064Z,13.73
2022-09-12T03:50:53.404Z,13.84
2022-09-12T03:53:22.650Z,13.88
2022-09-12T03:55:51.883Z,13.91
2022-09-12T03:58:21.239Z,13.93
2022-09-12T04:00:50.586Z,13.90
2022-09-12T04:03:20.276Z,13.96
2022-09-12T04:05:49.614Z,14.02
2022-09-12T04:08:18.873Z,14.06
2022-09-12T04:10:49.873Z,14.01
2022-09-12T04:13:19.127Z,14.09
2022-09-12T04:15:59.554Z,14.12
2022-09-12T04:18:29.217Z,14.13
2022-09-12T04:20:58.548Z,14.13
2022-09-12T04:23:27.845Z,14.19
2022-09-12T04:26:02.922Z,14.22
2022-09-12T04:28:33.006Z,14.22
2022-09-12T04:31:08.138Z,14.24
2022-09-12T04:33:38.678Z,14.22
2022-09-12T04:36:16.685Z,14.32
2022-09-12T04:38:50.668Z,14.34
2022-09-12T04:41:29.428Z,14.37
2022-09-12T04:44:02.215Z,14.39
2022-09-12T04:46:34.447Z,14.42
2022-09-12T04:49:03.881Z,14.48
2022-09-12T04:51:36.003Z,14.49
2022-09-12T04:54:11.276Z,14.50
2022-09-12T04:56:45.881Z,14.47
2022-09-12T04:59:17.276Z,14.59
2022-09-12T05:01:46.599Z,14.63
2022-09-12T05:04:16.454Z,14.68
2022-09-12T05:06:47.470Z,14.69
2022-09-12T05:09:17.233Z,14.73
2022-09-12T05:12:05.023Z,14.76
2022-09-12T05:14:35.657Z,14.80
2022-09-12T05:17:06.224Z,14.82
2022-09-12T05:19:35.659Z,14.87
2022-09-12T05:22:06.705Z,14.88
2022-09-12T05:24:37.872Z,14.92
2022-09-12T05:27:08.705Z,14.97
2022-09-12T05:29:43.118Z,15.00
2022-09-12T05:32:15.409Z,15.00
2022-09-12T05:34:44.703Z,15.00
2022-09-12T05:37:17.326Z,14.97
2022-09-12T05:39:46.652Z,15.03
2022-09-12T05:42:15.977Z,15.09
2022-09-12T05:44:45.235Z,15.12
2022-09-12T05:47:16.930Z,15.15
2022-09-12T05:49:49.131Z,15.28
2022-09-12T05:52:18.832Z,15.40
2022-09-12T05:54:48.282Z,15.47
2022-09-12T05:57:17.526Z,15.53
2022-09-12T05:59:46.852Z,15.62
2022-09-12T06:02:16.172Z,15.66
2022-09-12T06:04:45.849Z,15.72
2022-09-12T06:07:15.540Z,15.78
2022-09-12T06:09:44.782Z,15.85
2022-09-12T06:12:14.023Z,15.84
2022-09-12T06:14:43.519Z,15.86
2022-09-12T06:17:12.800Z,15.92
2022-09-12T06:19:44.315Z,15.95
2022-09-12T06:22:13.939Z,15.95
2022-09-12T06:24:43.566Z,15.98
2022-09-12T06:27:12.845Z,16.02
2022-09-12T06:29:42.139Z,16.06
2022-09-12T06:32:12.624Z,16.07
2022-09-12T06:34:41.889Z,16.15
2022-09-12T06:37:11.336Z,16.18
2022-09-12T06:39:40.630Z,16.23
2022-09-12T06:42:11.445Z,16.27
2022-09-12T06:44:44.211Z,16.26
2022-09-12T06:47:13.483Z,16.33
2022-09-12T06:49:42.778Z,16.41
2022-09-12T06:52:12.024Z,16.48
2022-09-12T06:54:42.520Z,16.46
2022-09-12T06:57:11.808Z,16.50
2022-09-12T06:59:41.066Z,16.50
2022-09-12T07:02:12.547Z,16.52
2022-09-12T07:04:41.918Z,16.52
2022-09-12T07:07:11.512Z,16.52
2022-09-12T07:09:40.956Z,16.52
2022-09-12T07:12:10.636Z,16.57
2022-09-12T07:14:39.924Z,16.58
2022-09-12T07:17:12.569Z,16.62
2022-09-12T07:19:41.889Z,16.67
2022-09-12T07:22:11.147Z,16.71
2022-09-12T07:24:41.345Z,16.88
2022-09-12T07:27:10.590Z,17.16
2022-09-12T07:29:39.922Z,17.43
2022-09-12T07:32:09.899Z,17.70
2022-09-12T07:34:39.233Z,17.98
2022-09-12T07:37:08.510Z,18.27
2022-09-12T07:39:37.832Z,18.31
2022-09-12T07:42:07.580Z,18.25
2022-09-12T07:44:36.998Z,18.37
2022-09-12T07:47:06.333Z,18.49
2022-09-12T07:49:36.098Z,18.70
2022-09-12T07:52:05.547Z,18.90
2022-09-12T07:54:34.947Z,19.03
2022-09-12T07:57:04.198Z,19.10
2022-09-12T07:59:52.043Z,19.19
2022-09-12T08:02:22.489Z,19.38
2022-09-12T08:04:51.888Z,19.58
2022-09-12T08:07:21.322Z,19.68
2022-09-12T08:09:50.779Z,19.83
2022-09-12T08:12:20.462Z,19.98
2022-09-12T08:14:49.750Z,20.15
2022-09-12T08:17:19.034Z,20.37
2022-09-12T08:19:49.694Z,20.52
2022-09-12T08:22:22.043Z,20.66
2022-09-12T08:24:55.335Z,20.85
2022-09-12T08:27:24.593Z,20.93
2022-09-12T08:29:53.825Z,20.83
2022-09-12T08:32:23.064Z,20.88
2022-09-12T08:34:52.329Z,21.03
2022-09-12T08:37:21.818Z,21.18
2022-09-12T08:39:51.337Z,21.28
2022-09-12T08:42:55.641Z,21.39
2022-09-12T08:45:33.790Z,21.65
2022-09-12T08:48:07.374Z,21.87
2022-09-12T08:50:36.790Z,22.12
2022-09-12T08:53:19.391Z,22.24
2022-09-12T08:56:03.815Z,22.40
2022-09-12T08:58:43.560Z,22.40
2022-09-12T09:01:16.469Z,22.42
2022-09-12T09:04:30.947Z,22.52
2022-09-12T09:07:22.136Z,22.55
2022-09-12T09:10:24.237Z,22.69
2022-09-12T09:13:11.869Z,22.87
2022-09-12T09:16:03.076Z,23.01
2022-09-12T09:18:36.074Z,23.24
2022-09-12T09:21:14.340Z,23.34
2022-09-12T09:23:47.146Z,23.53
2022-09-12T09:26:38.689Z,23.76
2022-09-12T09:29:17.422Z,24.00
2022-09-12T09:31:50.668Z,24.17
2022-09-12T09:34:30.027Z,24.28
2022-09-12T09:37:19.707Z,24.52
2022-09-12T09:40:15.865Z,24.78
2022-09-12T09:43:13.499Z,24.86
2022-09-12T09:45:48.027Z,24.85
2022-09-12T09:48:28.436Z,24.98
2022-09-12T09:51:01.907Z,25.16
2022-09-12T09:53:51.406Z,25.49
2022-09-12T09:56:41.388Z,25.81
2022-09-12T09:59:20.495Z,26.06
2022-09-12T10:01:54.661Z,26.20
2022-09-12T10:04:35.972Z,26.37
2022-09-12T10:07:08.400Z,26.56
2022-09-12T10:09:38.915Z,26.66
2022-09-12T10:12:31.735Z,26.89
2022-09-12T10:15:07.002Z,26.97
2022-09-12T10:17:46.886Z,27.01
2022-09-12T10:20:36.067Z,27.21
2022-09-12T10:23:29.501Z,27.35
2022-09-12T10:26:05.289Z,27.50
2022-09-12T10:28:43.420Z,27.55
2022-09-12T10:31:18.238Z,27.47
2022-09-12T10:33:53.903Z,27.44
2022-09-12T10:36:24.572Z,27.46
2022-09-12T10:38:56.921Z,27.41
2022-09-12T10:41:27.233Z,27.35
2022-09-12T10:44:10.848Z,27.39
2022-09-12T10:46:40.523Z,27.42
2022-09-12T10:49:17.374Z,27.49
2022-09-12T10:51:46.771Z,27.60
2022-09-12T10:54:19.710Z,27.62
2022-09-12T10:57:09.484Z,27.79
2022-09-12T10:59:47.855Z,27.84
2022-09-12T11:02:32.491Z,27.86
2022-09-12T11:05:21.965Z,27.74
2022-09-12T11:08:24.313Z,27.72
2022-09-12T11:11:07.561Z,27.72
2022-09-12T11:13:50.506Z,27.70
2022-09-12T11:16:42.801Z,27.74
2022-09-12T11:19:36.077Z,27.87
2022-09-12T11:22:23.871Z,27.94
2022-09-12T11:25:10.528Z,27.97
2022-09-12T11:27:58.878Z,27.87
2022-09-12T11:30:28.770Z,27.85
2022-09-12T11:33:29.143Z,27.91
2022-09-12T11:35:58.456Z,27.90
2022-09-12T11:38:34.662Z,27.86
2022-09-12T11:41:08.809Z,27.88
2022-09-12T11:43:53.228Z,27.87
2022-09-12T11:46:38.390Z,27.80
2022-09-12T11:49:13.565Z,27.83
2022-09-12T11:51:51.918Z,27.93
2022-09-12T11:54:27.464Z,27.90
2022-09-12T11:57:10.958Z,27.85
2022-09-12T11:59:50.020Z,27.86
2022-09-12T12:02:30.519Z,27.82
2022-09-12T12:05:08.206Z,27.72
2022-09-12T12:07:45.731Z,27.68
2022-09-12T12:10:26.705Z,27.68
2022-09-12T12:12:58.246Z,27.66
2022-09-12T12:15:29.270Z,27.70
2022-09-12T12:18:18.363Z,27.62
2022-09-12T12:20:50.969Z,27.58
2022-09-12T12:23:26.903Z,27.61
2022-09-12T12:25:58.966Z,27.62
2022-09-12T12:28:50.671Z,27.63
2022-09-12T12:31:26.376Z,27.66
2022-09-12T12:33:57.972Z,27.80
2022-09-12T12:36:40.515Z,28.10
2022-09-12T12:39:52.683Z,28.33
2022-09-12T12:42:37.367Z,28.55
2022-09-12T12:45:06.635Z,28.70
2022-09-12T12:47:43.059Z,28.74
2022-09-12T12:50:19.675Z,28.70
2022-09-12T12:52:51.643Z,28.60
2022-09-12T12:55:31.323Z,28.59
2022-09-12T12:58:03.070Z,28.64
2022-09-12T13:00:36.920Z,28.65
2022-09-12T13:03:09.275Z,28.56
2022-09-12T13:05:49.124Z,28.43
2022-09-12T13:08:21.347Z,28.48
2022-09-12T13:10:58.047Z,28.52
2022-09-12T13:13:32.539Z,28.60
2022-09-12T13:16:01.985Z,28.72
2022-09-12T13:18:51.943Z,28.82
2022-09-12T13:21:23.892Z,28.71
2022-09-12T13:24:17.208Z,28.61
2022-09-12T13:26:47.739Z,28.68
2022-09-12T13:29:23.259Z,28.77
2022-09-12T13:31:58.139Z,28.89
2022-09-12T13:34:37.495Z,29.00
2022-09-12T13:37:41.160Z,29.31
2022-09-12T13:40:42.622Z,29.38
2022-09-12T13:43:16.927Z,29.40
2022-09-12T13:45:50.753Z,29.51
2022-09-12T13:48:24.648Z,29.38
2022-09-12T13:51:00.780Z,29.25
2022-09-12T13:53:35.265Z,29.22
2022-09-12T13:56:04.902Z,29.17
2022-09-12T13:58:37.072Z,29.06
2022-09-12T14:01:13.586Z,28.79
2022-09-12T14:04:08.429Z,28.48
2022-09-12T14:06:57.980Z,28.23
2022-09-12T14:09:38.578Z,28.09
2022-09-12T14:12:30.363Z,27.94
2022-09-12T14:15:00.142Z,27.88
2022-09-12T14:17:36.323Z,27.76
2022-09-12T14:20:18.548Z,27.58
2022-09-12T14:22:51.215Z,27.52
2022-09-12T14:25:30.079Z,27.45
2022-09-12T14:28:01.475Z,27.32
2022-09-12T14:30:33.728Z,27.25
2022-09-12T14:33:15.284Z,27.26
2022-09-12T14:35:53.124Z,27.23
2022-09-12T14:38:34.031Z,27.21
2022-09-12T14:41:10.932Z,27.25
2022-09-12T14:43:54.025Z,27.21
2022-09-12T14:46:36.662Z,27.20
2022-09-12T14:49:34.747Z,27.22
2022-09-12T14:52:07.184Z,27.20
2022-09-12T14:54:37.323Z,27.21
2022-09-12T14:57:08.243Z,27.18
2022-09-12T14:59:37.451Z,27.12
2022-09-12T15:02:22.008Z,27.04
2022-09-12T15:04:54.343Z,26.99
2022-09-12T15:07:36.037Z,26.97
2022-09-12T15:10:25.454Z,27.01
2022-09-12T15:13:16.860Z,26.99
2022-09-12T15:15:49.388Z,27.01
2022-09-12T15:18:19.711Z,27.01
2022-09-12T15:20:51.387Z,27.05
2022-09-12T15:23:25.649Z,27.00
2022-09-12T15:25:54.951Z,26.92
2022-09-12T15:28:26.918Z,26.88
2022-09-12T15:30:58.910Z,26.85
2022-09-12T15:33:29.713Z,26.84
2022-09-12T15:35:58.967Z,26.85
2022-09-12T15:38:28.270Z,26.85
2022-09-12T15:40:57.718Z,26.88
2022-09-12T15:43:27.019Z,26.92
2022-09-12T15:45:56.399Z,26.93
2022-09-12T15:48:26.495Z,26.95
2022-09-12T15:51:01.390Z,26.99
2022-09-12T15:53:33.628Z,26.99
2022-09-12T15:56:02.961Z,26.89
2022-09-12T15:58:32.575Z,26.91
2022-09-12T16:01:02.433Z,26.92
2022-09-12T16:03:32.923Z,26.92
2022-09-12T16:06:04.139Z,26.88
2022-09-12T16:08:34.834Z,26.92
2022-09-12T16:11:14.832Z,26.90
2022-09-12T16:13:47.143Z,26.88
2022-09-12T16:16:16.513Z,26.88
2022-09-12T16:18:46.095Z,26.83
2022-09-12T16:21:16.519Z,26.78
2022-09-12T16:23:50.210Z,26.79
2022-09-12T16:26:20.066Z,26.74
2022-09-12T16:28:49.946Z,26.72
2022-09-12T16:31:21.334Z,26.76
2022-09-12T16:33:50.649Z,26.75
2022-09-12T16:36:24.341Z,26.77
2022-09-12T16:38:55.997Z,26.80
2022-09-12T16:41:27.405Z,26.78
2022-09-12T16:43:57.594Z,26.77
2022-09-12T16:46:29.884Z,26.72
2022-09-12T16:49:00.899Z,26.67
2022-09-12T16:51:35.973Z,26.56
2022-09-12T16:54:05.736Z,26.48
2022-09-12T16:56:35.448Z,26.42
2022-09-12T16:59:06.331Z,26.35
2022-09-12T17:01:37.774Z,26.32
2022-09-12T17:04:07.260Z,26.29
2022-09-12T17:06:36.866Z,26.11
2022-09-12T17:09:07.089Z,25.94
2022-09-12T17:11:39.713Z,25.77
2022-09-12T17:14:10.707Z,25.61
2022-09-12T17:16:42.852Z,25.50
2022-09-12T17:19:16.442Z,25.34
2022-09-12T17:21:47.585Z,25.19
2022-09-12T17:24:17.579Z,25.05
2022-09-12T17:26:47.850Z,24.98
2022-09-12T17:29:18.119Z,24.89
2022-09-12T17:31:48.199Z,24.81
2022-09-12T17:34:17.936Z,24.72
2022-09-12T17:36:48.771Z,24.62
2022-09-12T17:39:18.230Z,24.49
2022-09-12T17:41:51.023Z,24.33
2022-09-12T17:44:20.359Z,24.19
2022-09-12T17:46:49.678Z,24.06
2022-09-12T17:49:22.102Z,23.95
2022-09-12T17:51:52.164Z,23.83
2022-09-12T17:54:22.380Z,23.72
2022-09-12T17:56:52.591Z,23.63
2022-09-12T17:59:24.868Z,23.58
2022-09-12T18:02:06.805Z,23.52
2022-09-12T18:04:36.507Z,23.46
2022-09-12T18:07:06.085Z,23.38
2022-09-12T18:09:36.295Z,23.31
2022-09-12T18:12:05.631Z,23.25
2022-09-12T18:14:34.959Z,23.19
2022-09-12T18:17:06.706Z,23.14
2022-09-12T18:19:35.955Z,23.07
2022-09-12T18:22:06.011Z,22.99
2022-09-12T18:24:36.227Z,22.92
2022-09-12T18:27:06.173Z,22.86
2022-09-12T18:29:35.501Z,22.78
2022-09-12T18:32:04.992Z,22.71
2022-09-12T18:34:36.690Z,22.65
2022-09-12T18:37:07.190Z,22.60
2022-09-12T18:39:37.194Z,22.53
2022-09-12T18:42:06.694Z,22.48
2022-09-12T18:44:36.295Z,22.43
2022-09-12T18:47:05.629Z,22.38
2022-09-12T18:49:35.615Z,22.26
2022-09-12T18:52:05.391Z,22.27
2022-09-12T18:54:35.599Z,22.21
2022-09-12T18:57:04.963Z,22.14
2022-09-12T18:59:34.243Z,22.08
2022-09-12T19:02:03.877Z,22.00
2022-09-12T19:04:33.492Z,21.94
2022-09-12T19:07:02.765Z,21.88
2022-09-12T19:09:32.049Z,21.84
2022-09-12T19:12:01.360Z,21.80
2022-09-12T19:14:30.711Z,21.74
2022-09-12T19:17:02.716Z,21.68
2022-09-12T19:19:32.102Z,21.61
2022-09-12T19:22:01.451Z,21.55
2022-09-12T19:24:31.000Z,21.48
2022-09-12T19:27:00.305Z,21.42
2022-09-12T19:29:29.613Z,21.36
2022-09-12T19:31:59.048Z,21.30
2022-09-12T19:34:28.287Z,21.23
2022-09-12T19:36:59.463Z,21.17
2022-09-12T19:39:28.960Z,21.12
2022-09-12T19:41:58.223Z,21.05
2022-09-12T19:44:29.152Z,21.00
2022-09-12T19:46:58.579Z,20.95
2022-09-12T19:49:27.940Z,20.88
2022-09-12T19:51:57.227Z,20.78
2022-09-12T19:54:26.556Z,20.76
2022-09-12T19:56:55.835Z,20.72
2022-09-12T19:59:25.123Z,20.66
2022-09-12T20:01:54.502Z,20.60
2022-09-12T20:04:23.920Z,20.52
2022-09-12T20:06:53.204Z,20.48
2022-09-12T20:09:22.455Z,20.43
2022-09-12T20:11:51.702Z,20.39
2022-09-12T20:14:21.334Z,20.34
2022-09-12T20:16:50.794Z,20.31
2022-09-12T20:19:20.203Z,20.28
2022-09-12T20:21:49.473Z,20.19
2022-09-12T20:24:18.802Z,20.18
2022-09-12T20:26:48.166Z,20.14
2022-09-12T20:29:17.509Z,20.11
2022-09-12T20:31:47.275Z,20.08
2022-09-12T20:34:19.366Z,20.03
2022-09-12T20:36:50.036Z,20.00
2022-09-12T20:39:22.346Z,19.97
2022-09-12T20:41:51.963Z,19.94
2022-09-12T20:44:21.336Z,19.88
2022-09-12T20:46:50.627Z,19.87
2022-09-12T20:49:19.916Z,19.81
2022-09-12T20:51:49.265Z,19.76
2022-09-12T20:54:19.135Z,19.78
2022-09-12T20:56:48.429Z,19.75
2022-09-12T20:59:17.759Z,19.73
2022-09-12T21:01:47.121Z,19.69
2022-09-12T21:04:16.616Z,19.64
2022-09-12T21:06:45.860Z,19.66
2022-09-12T21:09:15.085Z,19.59
2022-09-12T21:11:47.390Z,19.54
2022-09-12T21:14:16.602Z,19.48
2022-09-12T21:16:45.844Z,19.45
2022-09-12T21:19:15.148Z,19.40
2022-09-12T21:21:44.466Z,19.32
2022-09-12T21:24:16.327Z,19.24
2022-09-12T21:26:45.696Z,19.19
2022-09-12T21:29:14.927Z,19.20
2022-09-12T21:31:47.208Z,19.22
2022-09-12T21:34:16.523Z,19.18
2022-09-12T21:36:45.816Z,19.13
2022-09-12T21:39:15.067Z,19.10
2022-09-12T21:41:44.962Z,19.08
2022-09-12T21:44:17.473Z,18.99
2022-09-12T21:46:46.983Z,18.88
2022-09-12T21:49:16.277Z,18.82
2022-09-12T21:51:45.539Z,18.75
2022-09-12T21:54:14.811Z,18.76
2022-09-12T21:56:46.537Z,18.82
2022-09-12T21:59:15.798Z,18.90
2022-09-12T22:01:45.101Z,19.02
2022-09-12T22:04:14.450Z,19.07
2022-09-12T22:06:43.715Z,19.07
2022-09-12T22:09:14.142Z,19.13
2022-09-12T22:11:43.972Z,19.17
2022-09-12T22:14:13.683Z,19.19
2022-09-12T22:16:43.043Z,19.13
2022-09-12T22:19:12.807Z,19.08
2022-09-12T22:22:02.132Z,19.07
2022-09-12T22:24:29.479Z,19.08
2022-09-12T22:27:01.004Z,19.06
2022-09-12T22:29:30.258Z,19.03
2022-09-12T22:31:59.665Z,19.00
2022-09-12T22:34:30.831Z,19.04
2022-09-12T22:37:01.298Z,19.14
2022-09-12T22:39:30.584Z,19.25
2022-09-12T22:41:59.832Z,19.31
2022-09-12T22:44:29.095Z,19.34
2022-09-12T22:46:58.382Z,19.37
2022-09-12T22:49:27.782Z,19.38
2022-09-12T22:51:57.065Z,19.36
2022-09-12T22:54:26.428Z,19.35
2022-09-12T22:56:55.725Z,19.32
2022-09-12T22:59:24.977Z,19.35
2022-09-12T23:01:54.251Z,19.38
2022-09-12T23:04:23.543Z,19.37
2022-09-12T23:06:53.058Z,19.24
2022-09-12T23:09:22.316Z,19.24
2022-09-12T23:11:52.146Z,19.31
2022-09-12T23:14:21.663Z,19.39
2022-09-12T23:16:50.900Z,19.43
2022-09-12T23:19:20.185Z,19.44
2022-09-12T23:21:49.479Z,19.42
2022-09-12T23:24:18.999Z,19.45
2022-09-12T23:26:48.253Z,19.53
2022-09-12T23:29:17.496Z,19.51
2022-09-12T23:31:47.306Z,19.45
2022-09-12T23:34:17.070Z,19.39
2022-09-12T23:36:46.367Z,19.40
2022-09-12T23:39:15.726Z,19.40
2022-09-12T23:41:45.038Z,19.39
2022-09-12T23:44:15.251Z,19.38
2022-09-12T23:46:44.527Z,19.35
2022-09-12T23:49:13.812Z,19.37
2022-09-12T23:51:43.083Z,19.43
2022-09-12T23:54:12.343Z,19.40
2022-09-12T23:56:41.722Z,19.32
2022-09-12T23:59:10.944Z,19.32
